createdAt,value
2022-12-26T00:01:27.816Z,0
2022-12-26T00:07:47.791Z,0
2022-12-26T00:14:10.813Z,0
2022-12-26T00:20:30.757Z,0
2022-12-26T00:26:53.819Z,0
2022-12-26T00:33:13.742Z,0
2022-12-26T00:39:36.827Z,0
2022-12-26T00:45:56.771Z,0
2022-12-26T00:52:19.797Z,0
2022-12-26T00:58:39.820Z,0
2022-12-26T01:05:02.806Z,0
2022-12-26T01:11:22.811Z,0
2022-12-26T01:17:45.866Z,0
2022-12-26T01:24:05.828Z,0
2022-12-26T01:30:28.820Z,0
2022-12-26T01:36:48.805Z,0
2022-12-26T01:43:11.865Z,0
2022-12-26T01:49:31.898Z,0
2022-12-26T01:55:54.892Z,0
2022-12-26T02:02:14.928Z,0
2022-12-26T02:08:37.802Z,0
2022-12-26T02:14:57.802Z,0
2022-12-26T02:21:20.801Z,0
2022-12-26T02:27:40.745Z,0
2022-12-26T02:34:03.804Z,0
2022-12-26T02:40:23.749Z,0
2022-12-26T02:46:46.824Z,0
2022-12-26T02:53:06.806Z,0
2022-12-26T02:59:54.862Z,0
2022-12-26T03:05:49.792Z,0
2022-12-26T03:12:12.862Z,0
2022-12-26T03:18:57.483Z,0
2022-12-26T03:24:55.809Z,0
2022-12-26T03:31:15.888Z,0
2022-12-26T03:37:48.175Z,0
2022-12-26T03:43:58.772Z,0
2022-12-26T03:50:21.784Z,0
2022-12-26T03:56:41.863Z,0
2022-12-26T04:03:04.807Z,0
2022-12-26T04:09:24.766Z,0
2022-12-26T04:15:47.890Z,0
2022-12-26T04:22:07.771Z,0
2022-12-26T04:28:30.809Z,0
2022-12-26T04:51:19.294Z,0
2022-12-26T04:57:38.756Z,0
2022-12-26T05:04:01.893Z,0
2022-12-26T05:10:21.792Z,0
2022-12-26T05:16:44.759Z,0
2022-12-26T05:23:04.770Z,0
2022-12-26T05:29:27.776Z,0
2022-12-26T05:35:47.776Z,0
2022-12-26T05:42:10.752Z,0
2022-12-26T05:48:30.765Z,0
2022-12-26T05:54:53.793Z,0
2022-12-26T06:01:13.856Z,0
2022-12-26T06:07:36.838Z,0
2022-12-26T06:13:56.766Z,0
2022-12-26T06:20:19.756Z,0
2022-12-26T06:26:39.789Z,0
2022-12-26T06:33:02.752Z,0
2022-12-26T06:39:22.819Z,0
2022-12-26T06:45:45.781Z,0
2022-12-26T06:52:05.957Z,0
2022-12-26T06:58:28.824Z,0
2022-12-26T07:04:48.784Z,0
2022-12-26T07:11:11.785Z,0
2022-12-26T07:17:31.800Z,0
2022-12-26T07:23:54.822Z,0
2022-12-26T07:30:14.805Z,0
2022-12-26T07:36:37.756Z,0
2022-12-26T07:42:57.835Z,0
2022-12-26T07:49:20.783Z,0
2022-12-26T07:55:40.787Z,0
2022-12-26T08:02:04.040Z,0
2022-12-26T08:08:23.747Z,0
2022-12-26T08:14:46.808Z,0
2022-12-26T08:21:06.769Z,5.62
2022-12-26T08:27:29.802Z,5.62
2022-12-26T08:33:49.790Z,5.62
2022-12-26T08:40:12.988Z,5.62
2022-12-26T08:46:32.754Z,5.62
2022-12-26T08:52:55.779Z,16.88
2022-12-26T08:59:15.821Z,16.88
2022-12-26T09:05:38.837Z,16.88
2022-12-26T09:11:58.819Z,22.5
2022-12-26T09:18:21.825Z,22.5
2022-12-26T09:24:41.772Z,28.12
2022-12-26T09:31:04.849Z,28.12
2022-12-26T09:37:24.898Z,16.88
2022-12-26T09:43:50.168Z,22.5
2022-12-26T09:50:07.774Z,28.12
2022-12-26T10:13:49.711Z,33.75
2022-12-26T10:20:12.754Z,33.75
2022-12-26T10:26:32.767Z,33.75
2022-12-26T10:32:55.811Z,39.38
2022-12-26T10:39:15.781Z,39.38
2022-12-26T10:45:38.857Z,39.38
2022-12-26T10:51:58.777Z,39.38
2022-12-26T10:58:21.747Z,28.12
2022-12-26T11:05:11.564Z,28.12
2022-12-26T11:11:04.784Z,39.38
2022-12-26T11:17:24.825Z,28.12
2022-12-26T11:23:47.787Z,33.75
2022-12-26T11:30:07.789Z,39.38
2022-12-26T11:36:30.801Z,39.38
2022-12-26T11:42:50.781Z,39.38
2022-12-26T11:49:13.809Z,28.12
2022-12-26T11:55:33.766Z,28.12
2022-12-26T12:01:56.854Z,28.12
2022-12-26T12:08:16.777Z,16.88
2022-12-26T12:14:39.754Z,11.25
2022-12-26T12:20:59.833Z,16.88
2022-12-26T12:27:22.794Z,16.88
2022-12-26T12:33:42.761Z,22.5
2022-12-26T12:40:05.990Z,50.62
2022-12-26T12:46:25.775Z,50.62
2022-12-26T12:52:48.818Z,22.5
2022-12-26T12:59:08.789Z,16.88
2022-12-26T13:05:31.934Z,11.25
2022-12-26T13:11:51.838Z,5.62
2022-12-26T13:18:14.781Z,11.25
2022-12-26T13:24:34.831Z,16.88
2022-12-26T13:30:57.793Z,11.25
2022-12-26T13:37:17.809Z,5.62
2022-12-26T13:43:40.788Z,5.62
2022-12-26T13:50:00.769Z,11.25
2022-12-26T13:56:23.843Z,5.62
2022-12-26T14:03:15.792Z,5.62
2022-12-26T14:09:06.761Z,0
2022-12-26T14:15:26.797Z,0
2022-12-26T14:21:49.786Z,0
2022-12-26T14:28:09.789Z,0
2022-12-26T14:34:32.774Z,0
2022-12-26T14:40:52.801Z,0
2022-12-26T14:47:15.812Z,0
2022-12-26T14:53:35.824Z,0
2022-12-26T15:00:03.397Z,0
2022-12-26T15:06:18.794Z,0
2022-12-26T15:12:41.794Z,0
2022-12-26T15:19:01.928Z,0
2022-12-26T15:25:24.782Z,0
2022-12-26T15:48:31.308Z,0
2022-12-26T15:54:50.746Z,0
2022-12-26T16:01:13.835Z,0
2022-12-26T16:07:33.842Z,0
2022-12-26T16:13:56.831Z,0
2022-12-26T16:20:18.767Z,0
2022-12-26T16:26:39.879Z,0
2022-12-26T16:32:59.847Z,0
2022-12-26T16:39:22.770Z,0
2022-12-26T16:45:42.851Z,0
2022-12-26T16:52:06.096Z,0
2022-12-26T16:58:25.750Z,0
2022-12-26T17:04:48.823Z,0
2022-12-26T17:11:08.821Z,0
2022-12-26T17:17:31.874Z,0
2022-12-26T17:23:51.878Z,0
2022-12-26T17:30:14.787Z,0
2022-12-26T17:42:57.785Z,0
2022-12-26T17:49:17.789Z,0
2022-12-26T17:55:40.803Z,0
2022-12-26T18:02:00.901Z,0
2022-12-26T18:08:23.850Z,0
2022-12-26T18:14:43.723Z,0
2022-12-26T18:21:06.820Z,0
2022-12-26T18:27:26.767Z,0
2022-12-26T18:33:49.793Z,0
2022-12-26T18:40:09.851Z,0
2022-12-26T18:46:32.750Z,0
2022-12-26T18:52:53.936Z,0
2022-12-26T18:59:15.951Z,0
2022-12-26T19:05:35.818Z,0
2022-12-26T19:11:58.805Z,0
2022-12-26T19:18:18.812Z,0
2022-12-26T19:24:41.909Z,0
2022-12-26T19:31:01.772Z,0
2022-12-26T19:37:24.862Z,0
2022-12-26T19:43:44.826Z,0
2022-12-26T19:50:07.797Z,0
2022-12-26T19:56:27.815Z,0
2022-12-26T20:02:50.908Z,0
2022-12-26T20:09:10.766Z,0
2022-12-26T20:15:33.956Z,0
2022-12-26T20:21:53.851Z,0
2022-12-26T20:28:16.782Z,0
2022-12-26T20:34:36.840Z,0
2022-12-26T20:58:00.734Z,0
2022-12-26T21:04:23.762Z,0
2022-12-26T21:10:43.864Z,0
2022-12-26T21:17:06.843Z,0
2022-12-26T21:23:26.835Z,0
2022-12-26T21:29:49.778Z,0
2022-12-26T21:36:09.804Z,0
2022-12-26T21:42:32.790Z,0
2022-12-26T21:48:52.760Z,0
2022-12-26T21:55:15.878Z,0
2022-12-26T22:01:35.902Z,0
2022-12-26T22:07:58.816Z,0
2022-12-26T22:14:18.809Z,0
2022-12-26T22:20:41.847Z,0
2022-12-26T22:27:01.741Z,0
2022-12-26T22:33:24.827Z,0
2022-12-26T22:39:44.843Z,0
2022-12-26T22:46:07.867Z,0
2022-12-26T22:52:27.937Z,0
2022-12-26T22:58:50.774Z,0
2022-12-26T23:21:47.751Z,0
2022-12-26T23:28:07.822Z,0
2022-12-26T23:34:30.775Z,0
2022-12-26T23:40:50.848Z,0
2022-12-26T23:47:13.759Z,0
2022-12-26T23:53:33.818Z,0
2022-12-26T23:59:56.857Z,0
